Kununurra, Australia
Current Conditions -  °F | °C
As of 4:00 PM on Friday 31 Oct 2014 (Local Time) from YPKU Reporting Station
Clear Clear  
Wind Chill: 102°   Ceiling: Unl
Heat Index: 102°   Visibility: 6mi
Dew Point: 55°   Wind: 13mph
Humidity: 21%   Direction: 360°N
Pressure: 29.68"   Gusts: NA
Location:  15.77°S, 128.74°E
Report Text: YPKU 310800Z AUTO 36011KT 9999 // NCD 39/13 Q1005
Loading
Personal Weather Stations






























Interactive Weather Map
Tropical Storm Tracking
New forecast layout! Learn more

10-Day Weather Forecast

Advertisements
Track Severe Weather on mobile